Time;durP1;ratioP1;P1;durP2;ratioP2;P2;SDS_P1;SDS_P2;PMS_P1;PMS_P2;Temp;Humidity;BMP_temperature;BMP_pressure;BME280_temperature;BME280_humidity;BME280_pressure;Samples;Min_cycle;Max_cycle;Signal;HPM_P1;HPM_P2
2024/04/15 00:02:20;;;;;;;5.55;1.48;;;13.70;53.40;;;;;;5394829;26;20080;-52
2024/04/15 00:05:04;;;;;;;4.28;1.17;;;13.70;53.50;;;;;;5394237;26;20748;-50
2024/04/15 00:07:53;;;;;;;4.13;0.80;;;13.70;53.50;;;;;;5384053;26;20669;-51
2024/04/15 00:10:38;;;;;;;5.78;2.28;;;13.70;53.50;;;;;;5393998;26;20037;-52
2024/04/15 00:13:22;;;;;;;4.22;1.25;;;13.70;53.50;;;;;;5381682;26;20077;-52
2024/04/15 00:16:09;;;;;;;3.70;1.15;;;13.70;53.60;;;;;;5399151;26;20019;-54
2024/04/15 00:18:53;;;;;;;4.95;1.27;;;13.60;53.40;;;;;;5390187;26;20075;-52
2024/04/15 00:21:38;;;;;;;3.05;1.15;;;13.60;53.40;;;;;;5388427;26;22477;-48
2024/04/15 00:24:23;;;;;;;3.22;1.05;;;13.60;53.50;;;;;;5385166;26;20022;-50
2024/04/15 00:27:07;;;;;;;4.80;1.70;;;13.60;53.50;;;;;;5395458;26;20470;-51
2024/04/15 00:29:52;;;;;;;3.33;0.90;;;13.60;53.50;;;;;;5382971;26;20076;-53
2024/04/15 00:32:38;;;;;;;4.60;1.00;;;13.60;53.50;;;;;;5363009;26;20010;-49
2024/04/15 00:35:22;;;;;;;3.53;1.42;;;13.60;53.60;;;;;;5373437;26;20083;-51
2024/04/15 00:38:07;;;;;;;4.55;1.10;;;13.50;53.40;;;;;;5391856;26;20009;-51
2024/04/15 00:40:51;;;;;;;7.15;1.48;;;13.50;53.50;;;;;;5368401;26;20014;-56
2024/04/15 00:43:36;;;;;;;5.38;1.02;;;13.50;53.50;;;;;;5387548;26;20476;-52
2024/04/15 00:46:21;;;;;;;4.68;1.27;;;13.50;53.50;;;;;;5381116;26;20342;-53
2024/04/15 00:49:06;;;;;;;3.90;1.10;;;13.50;53.50;;;;;;5390611;26;20013;-53
2024/04/15 00:51:51;;;;;;;3.25;1.65;;;13.40;53.40;;;;;;5389254;26;20010;-55
2024/04/15 00:54:38;;;;;;;3.22;1.05;;;13.50;54.20;;;;;;5395722;26;20010;-47
2024/04/15 00:57:23;;;;;;;3.45;1.13;;;13.40;53.50;;;;;;5390294;26;20077;-52
2024/04/15 01:00:08;;;;;;;3.97;1.10;;;13.40;53.50;;;;;;5365236;26;20014;-53
2024/04/15 01:02:54;;;;;;;3.83;0.80;;;13.40;53.50;;;;;;5386261;26;20010;-51
2024/04/15 01:05:39;;;;;;;3.15;1.17;;;13.40;53.50;;;;;;5374908;26;20082;-49
2024/04/15 01:08:24;;;;;;;5.10;1.58;;;13.40;53.60;;;;;;5380783;26;20018;-50
2024/04/15 01:11:11;;;;;;;3.47;0.95;;;13.40;53.60;;;;;;5400305;26;20076;-58
2024/04/15 01:13:56;;;;;;;2.67;0.95;;;13.30;53.40;;;;;;5390891;26;20073;-51
2024/04/15 01:16:41;;;;;;;4.93;1.50;;;13.30;53.50;;;;;;5390676;26;20015;-48
2024/04/15 01:19:26;;;;;;;5.85;1.17;;;13.30;53.50;;;;;;5395443;26;20010;-53
2024/04/15 01:22:15;;;;;;;4.03;1.02;;;13.30;53.60;;;;;;5395527;26;20009;-50
2024/04/15 01:25:01;;;;;;;2.33;0.80;;;13.30;53.70;;;;;;5391775;26;20471;-54
2024/04/15 01:27:46;;;;;;;3.53;1.08;;;13.30;53.70;;;;;;5394549;26;20089;-52
2024/04/15 01:30:31;;;;;;;4.57;2.40;;;13.20;53.60;;;;;;5383521;26;20462;-52
2024/04/15 01:33:17;;;;;;;3.15;1.00;;;13.20;53.60;;;;;;5386355;26;20007;-51
2024/04/15 01:36:02;;;;;;;2.95;1.00;;;13.20;53.70;;;;;;5355576;26;20076;-51
2024/04/15 01:38:46;;;;;;;2.25;1.30;;;13.20;53.70;;;;;;5398399;26;20014;-49
2024/04/15 01:41:31;;;;;;;4.43;1.20;;;13.20;53.80;;;;;;5385660;26;20525;-49
2024/04/15 01:44:16;;;;;;;3.40;0.95;;;13.20;53.80;;;;;;5394345;26;20077;-53
2024/04/15 01:47:01;;;;;;;3.35;1.08;;;13.20;53.90;;;;;;5384783;26;20015;-52
2024/04/15 01:49:46;;;;;;;7.30;2.03;;;13.20;54.00;;;;;;5376144;26;20482;-49
2024/04/15 01:52:30;;;;;;;5.93;1.40;;;13.10;53.80;;;;;;5392641;26;20006;-51
2024/04/15 01:55:15;;;;;;;5.20;1.13;;;13.20;54.10;;;;;;5383324;26;20019;-50
2024/04/15 01:57:59;;;;;;;3.72;1.33;;;13.10;54.00;;;;;;5395196;26;20492;-53
2024/04/15 02:00:44;;;;;;;4.53;1.10;;;13.10;54.00;;;;;;5387371;26;20412;-50
2024/04/15 02:03:30;;;;;;;2.92;1.58;;;13.10;54.00;;;;;;5397044;26;20009;-58
2024/04/15 02:06:14;;;;;;;8.27;1.23;;;13.10;54.10;;;;;;5378422;26;20018;-50
2024/04/15 02:08:59;;;;;;;5.13;1.10;;;13.10;54.20;;;;;;5375216;26;20015;-50
2024/04/15 02:11:44;;;;;;;4.57;1.65;;;13.00;54.00;;;;;;5379997;26;20130;-52
2024/04/15 02:14:29;;;;;;;4.95;1.17;;;13.00;54.10;;;;;;5397216;26;20014;-47
2024/04/15 02:17:14;;;;;;;3.38;1.00;;;13.00;54.10;;;;;;5390526;26;20076;-49
2024/04/15 02:19:59;;;;;;;5.03;1.38;;;13.00;54.20;;;;;;5382245;26;20051;-50
2024/04/15 02:22:44;;;;;;;5.50;1.30;;;13.00;54.20;;;;;;5391344;26;20057;-49
2024/04/15 02:25:32;;;;;;;3.53;0.80;;;13.00;54.30;;;;;;5406864;26;20014;-51
2024/04/15 02:28:16;;;;;;;4.95;1.42;;;13.00;54.40;;;;;;5391559;26;20011;-51
2024/04/15 02:31:01;;;;;;;5.35;1.23;;;13.00;54.50;;;;;;5395516;26;20480;-47
2024/04/15 02:33:45;;;;;;;2.88;1.38;;;12.90;54.30;;;;;;5389559;26;20010;-47
2024/04/15 02:36:30;;;;;;;6.25;1.35;;;12.90;54.40;;;;;;5392725;26;20396;-51
2024/04/15 02:39:15;;;;;;;2.80;0.93;;;12.90;54.50;;;;;;5396460;26;20010;-46
2024/04/15 02:42:01;;;;;;;4.28;1.10;;;12.90;54.60;;;;;;5395469;26;20018;-47
2024/04/15 02:44:45;;;;;;;4.25;0.90;;;12.90;54.70;;;;;;5361986;26;20291;-50
2024/04/15 02:47:31;;;;;;;4.32;0.85;;;12.80;54.50;;;;;;5365477;26;20044;-50
2024/04/15 02:50:16;;;;;;;3.78;1.00;;;12.80;54.60;;;;;;5400231;26;20006;-48
2024/04/15 02:53:01;;;;;;;5.25;1.00;;;12.80;54.60;;;;;;5395597;26;20095;-50
2024/04/15 02:55:45;;;;;;;3.47;0.98;;;12.80;54.70;;;;;;5399663;26;20015;-47
2024/04/15 02:58:30;;;;;;;3.58;1.08;;;12.80;54.70;;;;;;5398130;26;20015;-48
2024/04/15 03:01:15;;;;;;;5.80;1.88;;;12.80;54.80;;;;;;5401291;26;20009;-48
2024/04/15 03:04:00;;;;;;;3.58;1.33;;;12.80;54.80;;;;;;5388986;26;20010;-50
2024/04/15 03:06:45;;;;;;;3.88;1.00;;;12.80;54.90;;;;;;5382969;26;20013;-50
2024/04/15 03:09:29;;;;;;;5.10;1.10;;;12.80;55.00;;;;;;5412069;26;20010;-52
2024/04/15 03:12:16;;;;;;;5.78;1.20;;;12.80;55.00;;;;;;5367497;26;20543;-52
2024/04/15 03:15:00;;;;;;;5.88;1.20;;;12.80;55.10;;;;;;5405120;26;20021;-48
2024/04/15 03:17:50;;;;;;;5.57;1.45;;;12.80;55.10;;;;;;5387505;26;20559;-48
2024/04/15 03:20:34;;;;;;;4.50;1.35;;;12.80;55.20;;;;;;5389863;26;20018;-50
2024/04/15 03:23:19;;;;;;;5.75;1.45;;;12.70;55.00;;;;;;5387349;26;20007;-46
2024/04/15 03:26:04;;;;;;;5.30;1.20;;;12.80;55.30;;;;;;5392335;26;20437;-46
2024/04/15 03:28:49;;;;;;;6.03;1.92;;;12.70;55.20;;;;;;5374919;26;20229;-52
2024/04/15 03:31:34;;;;;;;7.25;2.53;;;12.80;55.40;;;;;;5394765;26;20022;-48
2024/04/15 03:34:19;;;;;;;6.28;2.20;;;12.70;55.30;;;;;;5400617;26;20018;-50
2024/04/15 03:37:04;;;;;;;7.90;1.70;;;12.70;55.30;;;;;;5396572;26;20006;-52
2024/04/15 03:39:49;;;;;;;8.40;1.70;;;12.70;55.40;;;;;;5365560;26;20362;-47
2024/04/15 03:42:34;;;;;;;6.43;1.73;;;12.70;55.40;;;;;;5390337;26;20018;-51
2024/04/15 03:45:21;;;;;;;10.07;2.10;;;12.70;55.40;;;;;;5410129;26;20019;-48
2024/04/15 03:48:06;;;;;;;7.57;2.28;;;12.70;55.50;;;;;;5384930;26;20139;-56
2024/04/15 03:50:51;;;;;;;11.23;3.20;;;12.80;55.70;;;;;;5380764;26;20009;-48
2024/04/15 03:53:35;;;;;;;4.57;1.45;;;12.70;55.50;;;;;;5394071;26;20010;-50
2024/04/15 03:56:20;;;;;;;5.25;1.30;;;12.80;55.70;;;;;;5360528;26;20073;-51
2024/04/15 03:59:04;;;;;;;6.90;1.95;;;12.80;56.30;;;;;;5387617;26;20744;-48
2024/04/15 04:01:49;;;;;;;6.63;1.83;;;12.80;55.70;;;;;;5397144;26;20075;-50
2024/04/15 04:04:35;;;;;;;8.57;1.88;;;12.80;55.70;;;;;;5383753;26;20528;-49
2024/04/15 04:07:22;;;;;;;6.28;1.83;;;12.80;55.70;;;;;;5368066;26;20562;-50
2024/04/15 04:10:07;;;;;;;6.55;1.55;;;12.80;56.30;;;;;;5381783;26;20129;-48
2024/04/15 04:12:52;;;;;;;5.28;1.50;;;12.80;56.30;;;;;;5396074;26;20455;-54
2024/04/15 04:15:38;;;;;;;6.72;2.45;;;12.80;55.70;;;;;;5383709;26;20295;-49
2024/04/15 04:18:23;;;;;;;7.93;2.05;;;12.80;55.70;;;;;;5383052;26;20472;-52
2024/04/15 04:21:12;;;;;;;8.13;1.35;;;12.80;55.70;;;;;;5387090;26;20068;-48
2024/04/15 04:23:58;;;;;;;7.03;1.55;;;12.80;55.70;;;;;;5385229;26;20352;-49
2024/04/15 04:26:43;;;;;;;7.45;2.75;;;12.80;55.70;;;;;;5361098;26;20013;-53
2024/04/15 04:29:28;;;;;;;8.40;2.30;;;12.80;55.70;;;;;;5384452;26;20420;-49
2024/04/15 04:32:13;;;;;;;6.97;1.55;;;12.80;55.70;;;;;;5368856;26;20006;-48
2024/04/15 04:34:57;;;;;;;8.20;2.28;;;12.90;55.90;;;;;;5382311;26;20014;-50
2024/04/15 04:37:42;;;;;;;8.77;2.63;;;12.90;55.90;;;;;;5392410;26;20071;-51
2024/04/15 04:40:27;;;;;;;6.47;1.67;;;12.90;55.90;;;;;;5372424;26;20014;-50
2024/04/15 04:43:11;;;;;;;7.55;1.77;;;12.90;55.90;;;;;;5393920;26;20010;-51
2024/04/15 04:45:56;;;;;;;9.63;2.60;;;12.90;55.90;;;;;;5373320;26;20351;-48
2024/04/15 04:48:40;;;;;;;7.35;1.90;;;12.90;56.00;;;;;;5382776;26;20030;-49
2024/04/15 04:51:25;;;;;;;8.23;1.80;;;12.90;56.00;;;;;;5394849;26;20587;-49
2024/04/15 04:54:10;;;;;;;11.73;2.65;;;12.90;56.00;;;;;;5353603;26;20050;-51
2024/04/15 04:56:55;;;;;;;11.20;2.38;;;12.90;56.00;;;;;;5388175;26;20014;-52
2024/04/15 04:59:39;;;;;;;11.25;2.60;;;12.90;56.00;;;;;;5362306;26;20058;-48
2024/04/15 05:02:25;;;;;;;13.82;2.20;;;12.90;56.10;;;;;;5363629;26;20019;-53
2024/04/15 05:05:09;;;;;;;8.10;1.92;;;12.90;56.10;;;;;;5385923;26;20017;-48
2024/04/15 05:07:54;;;;;;;12.05;2.70;;;12.90;56.10;;;;;;5381253;26;20520;-48
2024/04/15 05:10:39;;;;;;;9.02;2.17;;;12.90;56.10;;;;;;5381427;26;20011;-51
2024/04/15 05:13:23;;;;;;;10.85;2.75;;;12.90;56.20;;;;;;5377455;26;20010;-49
2024/04/15 05:16:13;;;;;;;11.27;2.42;;;12.80;56.00;;;;;;5381188;26;20758;-50
2024/04/15 05:18:58;;;;;;;10.95;2.72;;;12.80;56.00;;;;;;5385465;26;20049;-51
2024/04/15 05:21:44;;;;;;;12.93;3.20;;;12.80;56.00;;;;;;5373662;26;20588;-48
2024/04/15 05:24:29;;;;;;;9.80;2.65;;;12.90;56.20;;;;;;5376972;26;20014;-48
2024/04/15 05:27:14;;;;;;;10.15;2.20;;;12.80;56.10;;;;;;5381526;26;20339;-51
2024/04/15 05:29:58;;;;;;;11.27;2.92;;;12.80;56.10;;;;;;5368716;26;20007;-49
2024/04/15 05:32:43;;;;;;;9.77;2.30;;;12.80;56.10;;;;;;5380876;26;20010;-52
2024/04/15 05:35:28;;;;;;;9.10;2.17;;;12.90;56.30;;;;;;5383866;26;20392;-51
2024/04/15 05:38:13;;;;;;;10.57;2.88;;;12.90;56.30;;;;;;5378598;26;20516;-49
2024/04/15 05:40:59;;;;;;;10.85;2.53;;;12.90;56.30;;;;;;5382079;26;20059;-51
2024/04/15 05:43:43;;;;;;;9.98;2.20;;;12.90;56.30;;;;;;5382957;26;20089;-51
2024/04/15 05:46:28;;;;;;;11.27;2.70;;;12.90;56.20;;;;;;5378405;26;20602;-53
2024/04/15 05:49:12;;;;;;;8.45;2.10;;;12.90;56.20;;;;;;5377477;26;20011;-53
2024/04/15 05:51:57;;;;;;;8.00;2.35;;;12.90;56.20;;;;;;5377523;26;20428;-51
2024/04/15 05:54:42;;;;;;;10.40;2.15;;;12.90;56.20;;;;;;5348819;26;20011;-51
2024/04/15 05:57:26;;;;;;;9.82;3.55;;;12.90;56.20;;;;;;5383649;26;20393;-50
2024/04/15 06:00:13;;;;;;;10.82;2.53;;;13.00;56.60;;;;;;5384679;26;20014;-47
2024/04/15 06:02:59;;;;;;;10.05;2.95;;;13.10;57.70;;;;;;5382934;26;20022;-49
2024/04/15 06:05:43;;;;;;;9.27;2.30;;;13.20;58.40;;;;;;5387625;26;20005;-49
2024/04/15 06:08:28;;;;;;;19.10;6.63;;;13.30;58.80;;;;;;5370101;26;20279;-51
2024/04/15 06:11:13;;;;;;;14.77;5.22;;;13.40;59.00;;;;;;5384200;26;20078;-51
2024/04/15 06:13:58;;;;;;;17.88;4.75;;;13.40;59.00;;;;;;5362657;26;20006;-52
2024/04/15 06:16:43;;;;;;;8.90;4.30;;;13.50;59.20;;;;;;5387496;26;20064;-50
2024/04/15 06:19:28;;;;;;;24.83;7.68;;;13.50;59.20;;;;;;5381496;26;20599;-47
2024/04/15 06:22:12;;;;;;;18.08;6.85;;;13.50;59.30;;;;;;5375173;26;20014;-51
2024/04/15 06:24:56;;;;;;;16.98;6.63;;;13.50;59.50;;;;;;5360737;26;20073;-48
2024/04/15 06:27:42;;;;;;;15.18;6.45;;;13.60;59.80;;;;;;5374117;26;20118;-49
2024/04/15 06:30:27;;;;;;;15.32;5.88;;;13.60;59.90;;;;;;5381387;26;20547;-52
2024/04/15 06:33:12;;;;;;;14.73;5.50;;;13.70;60.20;;;;;;5382978;26;20216;-49
2024/04/15 06:35:56;;;;;;;16.83;5.90;;;13.80;60.50;;;;;;5368740;26;20006;-52
2024/04/15 06:38:41;;;;;;;13.90;5.28;;;13.80;60.30;;;;;;5404913;26;20014;-52
2024/04/15 06:41:26;;;;;;;14.27;4.65;;;13.80;60.20;;;;;;5397562;26;20095;-52
2024/04/15 06:44:13;;;;;;;12.25;4.80;;;13.90;60.30;;;;;;5372127;26;20015;-54
2024/04/15 06:46:58;;;;;;;12.98;5.18;;;13.80;60.10;;;;;;5375397;26;20023;-52
2024/04/15 06:49:43;;;;;;;14.45;4.00;;;13.90;60.20;;;;;;5376668;26;20082;-51
2024/04/15 06:52:27;;;;;;;13.50;5.28;;;13.90;60.10;;;;;;5396853;26;20007;-52
2024/04/15 06:55:13;;;;;;;9.70;3.45;;;13.90;60.00;;;;;;5385298;26;20825;-52
2024/04/15 06:57:58;;;;;;;9.60;3.78;;;13.90;60.00;;;;;;5357509;26;20472;-51
2024/04/15 07:00:43;;;;;;;11.65;4.22;;;13.90;60.00;;;;;;5384150;26;20018;-52
2024/04/15 07:03:28;;;;;;;11.25;4.35;;;13.80;59.70;;;;;;5390946;26;20854;-53
2024/04/15 07:06:13;;;;;;;13.02;3.75;;;13.80;59.60;;;;;;5390869;26;20515;-50
2024/04/15 07:08:57;;;;;;;10.00;2.88;;;13.80;59.60;;;;;;5397308;26;20507;-50
2024/04/15 07:11:42;;;;;;;7.95;2.40;;;13.70;59.40;;;;;;5392510;26;21035;-53
2024/04/15 07:14:27;;;;;;;9.30;2.60;;;13.70;59.50;;;;;;5399806;26;20085;-52
2024/04/15 07:17:11;;;;;;;5.20;2.28;;;13.70;59.50;;;;;;5378747;26;20081;-52
2024/04/15 07:19:56;;;;;;;9.05;3.00;;;13.70;59.60;;;;;;5392780;26;20084;-53
2024/04/15 07:22:41;;;;;;;9.43;2.92;;;13.60;59.40;;;;;;5395077;26;20077;-52
2024/04/15 07:25:26;;;;;;;4.63;1.73;;;13.60;59.40;;;;;;5389661;26;20014;-53
2024/04/15 07:28:11;;;;;;;6.47;2.25;;;13.60;59.40;;;;;;5363886;26;20109;-53
2024/04/15 07:31:02;;;;;;;7.07;2.95;;;13.60;59.40;;;;;;5377554;26;20010;-55
2024/04/15 07:33:49;;;;;;;8.05;1.90;;;13.60;59.40;;;;;;5397669;26;20018;-49
2024/04/15 07:36:35;;;;;;;5.53;2.40;;;13.60;59.30;;;;;;5402598;26;20089;-52
2024/04/15 07:39:20;;;;;;;5.68;2.10;;;13.60;59.20;;;;;;5363684;26;20010;-52
2024/04/15 07:42:06;;;;;;;6.07;1.58;;;13.60;59.70;;;;;;5389528;26;20015;-52
2024/04/15 07:44:52;;;;;;;4.32;1.23;;;13.60;59.00;;;;;;5395798;26;20385;-51
2024/04/15 07:47:37;;;;;;;4.43;1.35;;;13.70;59.00;;;;;;5393285;26;20022;-50
2024/04/15 07:50:21;;;;;;;2.50;1.33;;;13.70;58.80;;;;;;5386359;26;20010;-48
2024/04/15 07:53:06;;;;;;;4.97;1.90;;;13.70;58.60;;;;;;5400999;26;20005;-48
2024/04/15 07:55:51;;;;;;;2.42;1.20;;;13.80;58.60;;;;;;5394956;26;20538;-49
2024/04/15 07:58:36;;;;;;;12.40;1.55;;;13.90;58.60;;;;;;5365600;26;20548;-50
2024/04/15 08:01:20;;;;;;;2.28;1.08;;;13.90;58.40;;;;;;5383636;26;20619;-48
2024/04/15 08:04:05;;;;;;;5.47;1.38;;;13.90;58.30;;;;;;5387610;26;20114;-52
2024/04/15 08:06:49;;;;;;;3.33;1.83;;;14.00;58.30;;;;;;5388834;26;20468;-52
2024/04/15 08:09:34;;;;;;;4.07;1.02;;;14.00;58.10;;;;;;5385298;26;20014;-50
2024/04/15 08:12:18;;;;;;;2.88;1.10;;;14.10;58.10;;;;;;5393344;26;20009;-51
2024/04/15 08:15:04;;;;;;;3.22;0.85;;;14.10;58.00;;;;;;5387170;26;20013;-52
2024/04/15 08:17:48;;;;;;;3.38;1.25;;;14.20;58.00;;;;;;5382765;26;20073;-50
2024/04/15 08:20:33;;;;;;;3.83;1.40;;;14.20;57.80;;;;;;5382962;26;20551;-47
2024/04/15 08:23:17;;;;;;;3.65;1.30;;;14.20;57.70;;;;;;5344081;26;20015;-49
2024/04/15 08:26:02;;;;;;;4.53;1.08;;;14.30;57.80;;;;;;5377300;26;20194;-52
2024/04/15 08:28:47;;;;;;;3.72;1.20;;;14.30;57.60;;;;;;5381531;26;20037;-51
2024/04/15 08:31:32;;;;;;;4.43;1.70;;;14.40;57.60;;;;;;5375715;26;20010;-55
2024/04/15 08:34:17;;;;;;;3.35;0.73;;;14.40;57.50;;;;;;5387201;26;20615;-52
2024/04/15 08:37:03;;;;;;;3.78;1.42;;;14.40;57.40;;;;;;5346609;26;20070;-50
2024/04/15 08:39:48;;;;;;;5.72;1.85;;;14.60;57.60;;;;;;5386991;26;20093;-50
2024/04/15 08:42:47;;;;;;;4.50;1.40;;;14.70;57.60;;;;;;5384975;26;20409;-52
2024/04/15 08:45:33;;;;;;;3.03;1.17;;;14.70;57.30;;;;;;5364085;26;20088;-49
2024/04/15 08:48:21;;;;;;;4.50;1.80;;;14.80;57.30;;;;;;5395845;26;20070;-52
2024/04/15 08:51:07;;;;;;;4.13;1.42;;;14.90;57.30;;;;;;5385624;26;20077;-55
2024/04/15 08:53:53;;;;;;;4.00;1.50;;;15.00;57.30;;;;;;5385934;26;20238;-51
2024/04/15 08:56:43;;;;;;;3.30;1.27;;;15.00;57.00;;;;;;5378643;26;20014;-51
2024/04/15 08:59:30;;;;;;;4.25;1.33;;;15.20;57.20;;;;;;5369535;26;20011;-51
2024/04/15 09:02:16;;;;;;;2.67;1.00;;;15.20;56.90;;;;;;5357691;26;20010;-53
2024/04/15 09:05:01;;;;;;;3.15;1.15;;;15.20;56.80;;;;;;5372718;26;20011;-52
2024/04/15 09:07:45;;;;;;;4.95;1.23;;;15.30;56.90;;;;;;5375759;26;20050;-49
2024/04/15 09:10:30;;;;;;;4.60;0.93;;;15.20;56.70;;;;;;5398207;26;20022;-51
2024/04/15 09:13:15;;;;;;;3.60;1.20;;;15.20;56.70;;;;;;5381998;26;20027;-51
2024/04/15 09:16:00;;;;;;;4.18;1.73;;;15.20;56.70;;;;;;5398466;26;20017;-52
2024/04/15 09:18:45;;;;;;;3.63;1.00;;;15.20;56.60;;;;;;5388195;26;20080;-50
2024/04/15 09:21:32;;;;;;;3.95;1.15;;;15.30;56.70;;;;;;5383742;26;20012;-50
2024/04/15 09:24:18;;;;;;;3.30;1.65;;;15.30;56.60;;;;;;5385304;26;20613;-50
2024/04/15 09:27:04;;;;;;;3.35;1.10;;;15.30;56.40;;;;;;5382843;26;20014;-49
2024/04/15 09:29:48;;;;;;;3.97;1.30;;;15.40;56.40;;;;;;5366351;26;20014;-52
2024/04/15 09:32:35;;;;;;;4.05;1.10;;;15.50;56.40;;;;;;5367590;26;20077;-52
2024/04/15 09:35:19;;;;;;;5.25;0.88;;;15.50;56.30;;;;;;5393186;26;20080;-51
2024/04/15 09:38:08;;;;;;;3.60;1.25;;;15.60;56.30;;;;;;5345240;26;20011;-50
2024/04/15 09:40:53;;;;;;;4.25;1.35;;;15.70;56.20;;;;;;5382140;26;20014;-51
2024/04/15 09:43:41;;;;;;;3.20;1.75;;;15.80;56.10;;;;;;5381232;26;20114;-51
2024/04/15 09:46:31;;;;;;;5.95;1.00;;;16.00;56.10;;;;;;5379516;26;20074;-52
2024/04/15 09:49:17;;;;;;;4.43;1.60;;;16.10;56.00;;;;;;5370319;26;20059;-53
2024/04/15 09:52:10;;;;;;;3.10;1.10;;;16.20;55.80;;;;;;5381017;26;20105;-53
2024/04/15 09:55:07;;;;;;;4.03;1.30;;;16.30;55.70;;;;;;5382094;26;20013;-48
2024/04/15 09:57:54;;;;;;;7.88;1.40;;;16.40;55.50;;;;;;5387562;26;20015;-49
2024/04/15 10:00:44;;;;;;;5.35;1.23;;;16.50;56.00;;;;;;5356944;26;20473;-52
2024/04/15 10:03:30;;;;;;;5.45;2.50;;;16.60;55.30;;;;;;5375755;26;20014;-51
2024/04/15 10:06:22;;;;;;;2.50;0.90;;;16.60;55.10;;;;;;5365321;26;20098;-50
2024/04/15 10:09:08;;;;;;;5.70;1.02;;;16.70;55.00;;;;;;5393207;26;20325;-51
2024/04/15 10:11:54;;;;;;;4.45;1.50;;;16.70;54.70;;;;;;5379281;26;20075;-51
2024/04/15 10:14:39;;;;;;;3.13;0.98;;;16.80;54.70;;;;;;5380178;26;20428;-50
2024/04/15 10:17:26;;;;;;;3.38;0.80;;;16.90;54.70;;;;;;5380088;26;20071;-49
2024/04/15 10:20:13;;;;;;;2.53;0.77;;;17.00;54.50;;;;;;5394238;26;20014;-50
2024/04/15 10:23:08;;;;;;;2.35;1.05;;;17.10;54.40;;;;;;5364428;26;20101;-51
2024/04/15 10:25:53;;;;;;;2.33;1.10;;;17.30;54.30;;;;;;5376119;26;20030;-50
2024/04/15 10:28:38;;;;;;;4.85;0.80;;;17.50;54.40;;;;;;5383127;26;20111;-48
2024/04/15 10:31:28;;;;;;;2.55;0.70;;;17.60;54.20;;;;;;5380821;26;20817;-52
2024/04/15 10:34:14;;;;;;;2.50;0.80;;;17.70;54.00;;;;;;5363285;26;20010;-49
2024/04/15 10:37:01;;;;;;;2.05;0.88;;;17.90;54.10;;;;;;5382831;26;20018;-55
2024/04/15 10:39:46;;;;;;;3.38;1.33;;;17.90;53.90;;;;;;5352422;26;20006;-52
2024/04/15 10:42:32;;;;;;;2.65;0.88;;;18.00;53.90;;;;;;5395886;26;20109;-51
2024/04/15 10:45:19;;;;;;;3.15;0.93;;;18.00;53.70;;;;;;5377993;26;20866;-51
2024/04/15 10:48:04;;;;;;;3.13;0.70;;;18.10;53.60;;;;;;5380889;26;20511;-52
2024/04/15 10:50:49;;;;;;;3.22;0.95;;;18.10;53.40;;;;;;5388255;26;20022;-50
2024/04/15 10:53:34;;;;;;;3.33;1.02;;;18.10;53.20;;;;;;5397977;26;20015;-54
2024/04/15 10:56:18;;;;;;;4.00;1.17;;;18.20;53.20;;;;;;5383916;26;20793;-49
2024/04/15 10:59:04;;;;;;;1.98;1.10;;;18.30;53.20;;;;;;5362794;26;20010;-50
2024/04/15 11:01:49;;;;;;;1.95;1.02;;;18.30;53.00;;;;;;5386584;26;20078;-54
2024/04/15 11:04:34;;;;;;;4.40;1.48;;;18.30;52.80;;;;;;5381099;26;20011;-50
2024/04/15 11:07:18;;;;;;;3.85;1.35;;;18.40;52.80;;;;;;5384535;26;20092;-51
2024/04/15 11:10:04;;;;;;;4.15;0.95;;;18.50;52.80;;;;;;5382185;26;20067;-49
2024/04/15 11:12:53;;;;;;;3.05;0.90;;;18.60;52.90;;;;;;5383631;26;20512;-51
2024/04/15 11:15:39;;;;;;;3.00;0.82;;;18.70;52.80;;;;;;5401435;26;20014;-53
2024/04/15 11:18:24;;;;;;;1.88;0.90;;;18.70;52.60;;;;;;5377431;26;20014;-50
2024/04/15 11:21:09;;;;;;;2.92;1.25;;;18.80;52.70;;;;;;5389368;26;20433;-54
2024/04/15 11:23:53;;;;;;;2.58;0.98;;;18.90;53.00;;;;;;5392958;26;20064;-48
2024/04/15 11:26:42;;;;;;;1.80;0.98;;;18.90;52.60;;;;;;5398685;26;20018;-49
2024/04/15 11:29:27;;;;;;;3.30;1.20;;;19.00;52.60;;;;;;5398283;26;20040;-52
2024/04/15 11:32:12;;;;;;;3.88;1.10;;;19.20;52.70;;;;;;5404415;26;20836;-52
2024/04/15 11:34:57;;;;;;;1.48;0.65;;;19.30;52.50;;;;;;5406916;26;20424;-52
2024/04/15 11:37:42;;;;;;;3.17;0.82;;;19.40;52.20;;;;;;5398278;26;20006;-51
2024/04/15 11:40:27;;;;;;;3.47;0.77;;;19.50;52.10;;;;;;5385115;26;20628;-50
2024/04/15 11:43:12;;;;;;;5.57;2.05;;;19.60;52.00;;;;;;5389676;26;20010;-51
2024/04/15 11:46:00;;;;;;;1.38;0.80;;;19.70;51.90;;;;;;5372826;26;20006;-51
2024/04/15 11:48:44;;;;;;;6.13;1.20;;;19.70;51.40;;;;;;5372488;26;20066;-50
2024/04/15 11:51:29;;;;;;;4.00;1.58;;;19.70;51.10;;;;;;5399257;26;20461;-52
2024/04/15 11:54:14;;;;;;;2.85;1.05;;;19.60;50.70;;;;;;5354257;26;20850;-53
2024/04/15 11:56:58;;;;;;;5.10;1.27;;;19.50;50.50;;;;;;5365861;26;20855;-49
2024/04/15 11:59:44;;;;;;;2.03;1.13;;;19.50;50.50;;;;;;5399463;26;20531;-50
2024/04/15 12:02:29;;;;;;;6.20;1.40;;;19.50;50.30;;;;;;5367172;26;20027;-52
2024/04/15 12:05:13;;;;;;;1.85;0.63;;;19.50;50.20;;;;;;5398429;26;20010;-50
2024/04/15 12:07:58;;;;;;;1.88;0.80;;;19.60;50.30;;;;;;5385908;26;20050;-52
2024/04/15 12:10:45;;;;;;;2.58;0.90;;;19.70;50.40;;;;;;5384567;26;20433;-49
2024/04/15 12:13:30;;;;;;;3.47;1.20;;;19.70;50.20;;;;;;5380503;26;20298;-52
2024/04/15 12:16:14;;;;;;;1.50;0.75;;;19.80;50.30;;;;;;5397400;26;20010;-53
2024/04/15 12:18:59;;;;;;;4.43;1.50;;;19.80;50.20;;;;;;5332315;26;20018;-51
2024/04/15 12:21:44;;;;;;;2.45;1.25;;;19.90;50.40;;;;;;5367789;26;20471;-48
2024/04/15 12:24:29;;;;;;;3.42;1.25;;;19.90;50.40;;;;;;5395839;26;20006;-52
2024/04/15 12:27:14;;;;;;;2.88;0.90;;;20.00;50.50;;;;;;5361201;26;20085;-52
2024/04/15 12:30:00;;;;;;;3.38;1.25;;;20.00;50.40;;;;;;5384319;26;20007;-52
2024/04/15 12:32:44;;;;;;;1.50;0.70;;;20.10;50.60;;;;;;5357253;26;20014;-47
2024/04/15 12:35:30;;;;;;;2.13;1.00;;;20.10;50.60;;;;;;5383870;26;20010;-53
2024/04/15 12:38:14;;;;;;;3.13;0.77;;;20.10;50.60;;;;;;5377400;26;20082;-52
2024/04/15 12:40:59;;;;;;;2.63;1.17;;;20.10;50.60;;;;;;5381628;26;20110;-51
2024/04/15 12:43:46;;;;;;;1.88;1.00;;;20.10;50.60;;;;;;5390390;26;20014;-48
2024/04/15 12:46:30;;;;;;;1.50;0.63;;;20.10;50.40;;;;;;5385700;26;20058;-52
2024/04/15 12:49:15;;;;;;;1.58;0.68;;;20.20;50.50;;;;;;5392201;26;20657;-53
2024/04/15 12:52:00;;;;;;;2.88;1.27;;;20.20;50.40;;;;;;5386815;26;20077;-51
2024/04/15 12:54:44;;;;;;;2.83;0.88;;;20.30;50.40;;;;;;5393042;26;20010;-51
2024/04/15 12:57:30;;;;;;;4.82;0.98;;;20.40;50.30;;;;;;5386242;26;20522;-51
2024/04/15 13:00:15;;;;;;;1.58;0.75;;;20.50;50.40;;;;;;5378678;26;20072;-52
2024/04/15 13:03:01;;;;;;;2.22;1.08;;;20.50;50.30;;;;;;5373766;26;20821;-50
2024/04/15 13:05:45;;;;;;;2.15;0.73;;;20.40;50.20;;;;;;5385404;26;20014;-51
2024/04/15 13:08:31;;;;;;;3.30;0.73;;;20.30;50.20;;;;;;5383103;26;20078;-51
2024/04/15 13:11:15;;;;;;;1.85;0.60;;;20.20;50.20;;;;;;5387636;26;20089;-53
2024/04/15 13:14:00;;;;;;;2.15;0.68;;;20.20;50.30;;;;;;5398027;26;20006;-50
2024/04/15 13:16:44;;;;;;;1.73;0.60;;;20.20;50.40;;;;;;5363275;26;20591;-50
2024/04/15 13:19:30;;;;;;;1.90;0.70;;;20.20;50.40;;;;;;5390714;26;20006;-50
2024/04/15 13:22:14;;;;;;;1.33;0.73;;;20.20;50.30;;;;;;5387577;26;20018;-51
2024/04/15 13:24:58;;;;;;;1.00;0.57;;;20.30;50.40;;;;;;5372760;26;20007;-47
2024/04/15 13:27:43;;;;;;;5.40;1.05;;;20.40;50.60;;;;;;5382896;26;20141;-48
2024/04/15 13:30:27;;;;;;;1.10;0.60;;;20.50;50.60;;;;;;5385395;26;20009;-51
2024/04/15 13:33:12;;;;;;;3.20;1.27;;;20.70;50.90;;;;;;5384246;26;20010;-51
2024/04/15 13:35:57;;;;;;;3.83;1.15;;;20.80;50.60;;;;;;5350885;26;20608;-53
2024/04/15 13:38:42;;;;;;;2.90;0.98;;;20.90;50.60;;;;;;5379541;26;20433;-55
2024/04/15 13:41:27;;;;;;;2.03;0.82;;;21.10;50.70;;;;;;5382816;26;20010;-51
2024/04/15 13:44:12;;;;;;;2.60;0.70;;;21.20;50.70;;;;;;5383687;26;20136;-50
2024/04/15 13:46:57;;;;;;;2.25;0.75;;;21.30;50.70;;;;;;5394173;26;20017;-50
2024/04/15 13:49:41;;;;;;;1.70;0.80;;;21.40;50.60;;;;;;5380692;26;20429;-50
2024/04/15 13:52:26;;;;;;;2.30;0.75;;;21.50;50.60;;;;;;5382111;26;20402;-53
2024/04/15 13:55:11;;;;;;;1.38;0.95;;;21.40;50.40;;;;;;5383793;26;20131;-48
2024/04/15 13:57:56;;;;;;;3.00;0.95;;;21.40;50.50;;;;;;5384274;26;20103;-50
2024/04/15 14:00:40;;;;;;;1.08;0.40;;;21.20;50.20;;;;;;5384533;26;20424;-52
2024/04/15 14:03:25;;;;;;;3.55;1.20;;;21.10;50.20;;;;;;5385566;26;20003;-52
2024/04/15 14:06:10;;;;;;;3.72;1.20;;;21.10;50.20;;;;;;5375910;26;20010;-52
2024/04/15 14:08:55;;;;;;;2.85;1.00;;;21.00;50.20;;;;;;5385026;26;20019;-52
2024/04/15 14:11:41;;;;;;;3.67;1.50;;;20.90;50.00;;;;;;5348781;26;20401;-51
2024/04/15 14:14:26;;;;;;;1.60;0.90;;;20.80;49.80;;;;;;5352628;26;20374;-50
2024/04/15 14:17:12;;;;;;;1.75;0.68;;;20.70;49.70;;;;;;5365433;26;20193;-52
2024/04/15 14:19:56;;;;;;;2.80;1.05;;;20.70;49.70;;;;;;5354663;26;20742;-50